Terminal Aerodrome Forecast
Issued by NWS

Home | Current Version | Previous Version | Text Only | Print | Product List | Glossary Off
Versions: 1 2 3 4 5 6 7 8 9 10 11 12 13 14 15 16 17 18 19 20 21

000
FTUS43 KICT 221725
TAFRSL
TAF
KRSL 221725Z 2218/2318 13004KT 6SM BR VCSH OVC007
      TEMPO 2218/2222 3SM -FZRASN OVC004
     FM222200 14006KT 5SM BR OVC007
      TEMPO 2306/2310 3SM BR OVC004
     FM231500 03007KT P6SM BKN012=

USA.gov is the U.S. government's official web portal to all federal, state and local government web resources and services.